Terminal Aerodrome Forecast
Issued by NWS Wilmington, OH

Current Version | Previous Version | Graphics & Text | Print | Product List | Glossary On
Versions: 1 2 3 4 5 6 7 8 9 10 11 12 13 14 15 16
166
FTUS41 KILN 030329 AAD
TAFILN
TAF AMD
KILN 030329Z 0303/0324 17016G26KT 4SM -SHRA BR VCTS OVC035CB
      WS020/19060KT
      TEMPO 0304/0308 2SM TSRA OVC025CB
     FM031000 18016G26KT 5SM BR VCSH OVC015
     FM031300 22012G22KT P6SM BKN025
     FM031600 24018G28KT P6SM BKN035=

USA.gov is the U.S. government's official web portal to all federal, state and local government web resources and services.